Terminal Aerodrome Forecast
Issued by NWS

Home | Current Version | Previous Version | Text Only | Print | Product List | Glossary Off
Versions: 1 2 3 4 5 6 7 8 9 10 11 12 13 14 15 16 17 18 19 20 21 22 23 24 25 26 27 28 29 30 31 32 33

000
FTUS43 KLOT 141900 AAA
TAFORD
TAF AMD
KORD 141959Z 1420/1524 35013G21KT 6SM -RASN BKN018 OVC025
     FM142200 34013G21KT 2SM -SN SCT012 BKN016 OVC025
      TEMPO 1423/1502 1SM -SN SCT008 BKN012
     FM150200 35012G18KT P6SM VCSH BKN020
     FM150600 34011G16KT P6SM FEW030
     FM151500 31009KT P6SM SCT040=

USA.gov is the U.S. government's official web portal to all federal, state and local government web resources and services.